createdAt,value
2017-10-20T00:01:51.759Z,87.38
2017-10-20T00:04:20.799Z,86.89
2017-10-20T00:06:49.835Z,86.28
2017-10-20T00:09:18.879Z,91.00
2017-10-20T00:11:47.924Z,88.74
2017-10-20T00:14:16.996Z,89.45
2017-10-20T00:16:46.047Z,93.82
2017-10-20T00:19:15.088Z,92.09
2017-10-20T00:21:44.133Z,92.21
2017-10-20T00:24:13.200Z,92.36
2017-10-20T00:26:42.246Z,91.48
2017-10-20T00:29:11.284Z,92.36
2017-10-20T00:31:42.258Z,91.85
2017-10-20T00:34:11.296Z,89.19
2017-10-20T00:36:43.704Z,89.35
2017-10-20T00:39:12.734Z,87.98
2017-10-20T00:41:41.771Z,89.87
2017-10-20T00:44:10.858Z,88.76
2017-10-20T00:46:39.935Z,90.50
2017-10-20T00:49:08.970Z,90.03
2017-10-20T00:51:39.649Z,90.36
2017-10-20T00:54:08.689Z,88.98
2017-10-20T00:56:37.790Z,87.45
2017-10-20T00:59:06.837Z,90.49
2017-10-20T01:01:40.694Z,90.49
2017-10-20T01:04:09.712Z,90.27
2017-10-20T01:06:38.776Z,88.69
2017-10-20T01:09:07.811Z,89.04
2017-10-20T01:11:36.862Z,89.56
2017-10-20T01:14:05.899Z,90.10
2017-10-20T01:16:34.947Z,88.90
2017-10-20T01:19:03.966Z,88.72
2017-10-20T01:21:33.051Z,88.86
2017-10-20T01:24:02.050Z,89.57
2017-10-20T01:26:31.108Z,88.92
2017-10-20T01:29:00.158Z,89.55
2017-10-20T01:31:29.193Z,91.69
2017-10-20T01:33:59.186Z,92.66
2017-10-20T01:36:28.243Z,89.57
2017-10-20T01:38:57.280Z,89.90
2017-10-20T01:41:30.170Z,89.82
2017-10-20T01:43:59.212Z,88.99
2017-10-20T01:46:28.240Z,90.82
2017-10-20T01:48:57.284Z,89.43
2017-10-20T01:51:26.319Z,90.18
2017-10-20T01:53:55.358Z,89.37
2017-10-20T01:56:24.416Z,91.04
2017-10-20T01:58:53.442Z,90.55
2017-10-20T02:01:22.494Z,92.76
2017-10-20T02:03:51.535Z,92.34
2017-10-20T02:06:20.611Z,92.69
2017-10-20T02:08:49.654Z,92.47
2017-10-20T02:11:18.686Z,94.21
2017-10-20T02:13:47.728Z,92.97
2017-10-20T02:16:16.803Z,93.07
2017-10-20T02:18:45.841Z,92.08
2017-10-20T02:21:14.873Z,92.11
2017-10-20T02:23:44.843Z,92.03
2017-10-20T02:26:13.905Z,91.79
2017-10-20T02:28:42.951Z,95.21
2017-10-20T02:31:11.995Z,94.78
2017-10-20T02:33:41.034Z,95.22
2017-10-20T02:36:10.086Z,94.95
2017-10-20T02:38:39.152Z,93.82
2017-10-20T02:41:08.204Z,94.18
2017-10-20T02:43:37.246Z,94.65
2017-10-20T02:46:06.306Z,95.20
2017-10-20T02:48:35.369Z,95.65
2017-10-20T02:51:04.407Z,96.07
2017-10-20T02:53:33.444Z,95.19
2017-10-20T02:56:02.478Z,94.36
2017-10-20T02:58:32.554Z,94.08
2017-10-20T03:01:01.589Z,93.24
2017-10-20T03:03:30.634Z,92.70
2017-10-20T03:05:59.682Z,95.07
2017-10-20T03:08:29.680Z,93.88
2017-10-20T03:10:58.714Z,94.02
2017-10-20T03:13:27.744Z,93.79
2017-10-20T03:15:56.791Z,96.25
2017-10-20T03:18:25.848Z,95.66
2017-10-20T03:20:54.907Z,97.75
2017-10-20T03:23:23.943Z,98.07
2017-10-20T03:25:52.980Z,98.21
2017-10-20T03:28:22.110Z,97.54
2017-10-20T03:30:51.915Z,97.65
2017-10-20T03:33:21.854Z,97.29
2017-10-20T03:35:50.885Z,97.06
2017-10-20T03:38:19.930Z,96.48
2017-10-20T03:40:48.981Z,96.56
2017-10-20T03:43:18.022Z,96.22
2017-10-20T03:45:47.065Z,95.99
2017-10-20T03:48:16.163Z,96.49
2017-10-20T03:50:45.213Z,96.56
2017-10-20T03:53:14.269Z,96.29
2017-10-20T03:55:44.310Z,96.76
2017-10-20T03:58:13.352Z,96.59
2017-10-20T04:00:42.415Z,95.96
2017-10-20T04:03:11.463Z,95.36
2017-10-20T04:05:40.510Z,95.23
2017-10-20T04:08:09.563Z,95.62
2017-10-20T04:10:38.631Z,96.28
2017-10-20T04:13:07.659Z,95.21
2017-10-20T04:15:36.768Z,94.09
2017-10-20T04:18:05.820Z,93.32
2017-10-20T04:20:34.879Z,93.33
2017-10-20T04:23:03.895Z,93.08
2017-10-20T04:25:32.964Z,94.08
2017-10-20T04:28:01.991Z,93.15
2017-10-20T04:30:31.153Z,93.24
2017-10-20T04:33:00.197Z,92.95
2017-10-20T04:35:29.241Z,93.73
2017-10-20T04:37:59.299Z,93.23
2017-10-20T04:40:28.354Z,92.33
2017-10-20T04:42:58.300Z,92.95
2017-10-20T04:45:27.363Z,93.16
2017-10-20T04:47:57.335Z,93.25
2017-10-20T04:50:26.379Z,92.70
2017-10-20T04:52:56.342Z,91.87
2017-10-20T04:55:25.394Z,91.32
2017-10-20T04:57:55.366Z,91.25
2017-10-20T05:00:24.394Z,93.01
2017-10-20T05:02:55.423Z,92.28
2017-10-20T05:05:24.430Z,92.31
2017-10-20T05:07:53.462Z,92.27
2017-10-20T05:10:23.486Z,92.23
2017-10-20T05:12:56.182Z,91.36
2017-10-20T05:15:25.215Z,91.16
2017-10-20T05:17:54.246Z,90.92
2017-10-20T05:20:23.278Z,90.70
2017-10-20T05:22:52.495Z,90.54
2017-10-20T05:25:21.532Z,90.58
2017-10-20T05:27:50.595Z,89.95
2017-10-20T05:30:19.634Z,90.64
2017-10-20T05:32:48.673Z,91.27
2017-10-20T05:35:17.727Z,90.95
2017-10-20T05:37:47.718Z,90.92
2017-10-20T05:40:16.756Z,90.76
2017-10-20T05:42:47.767Z,91.63
2017-10-20T05:45:21.568Z,91.37
2017-10-20T05:47:52.605Z,91.58
2017-10-20T05:50:21.638Z,91.35
2017-10-20T05:52:50.671Z,90.51
2017-10-20T05:55:19.703Z,90.10
2017-10-20T05:57:48.758Z,90.93
2017-10-20T06:00:17.798Z,90.33
2017-10-20T06:02:52.431Z,91.29
2017-10-20T06:05:21.463Z,91.64
2017-10-20T06:07:51.643Z,90.44
2017-10-20T06:10:20.675Z,91.49
2017-10-20T06:12:53.458Z,91.95
2017-10-20T06:15:30.053Z,92.54
2017-10-20T06:17:59.139Z,92.24
2017-10-20T06:20:28.180Z,92.13
2017-10-20T06:22:57.213Z,93.23
2017-10-20T06:25:27.218Z,92.91
2017-10-20T06:27:56.277Z,92.20
2017-10-20T06:30:27.619Z,91.73
2017-10-20T06:32:57.559Z,91.94
2017-10-20T06:35:26.642Z,91.05
2017-10-20T06:37:55.709Z,89.67
2017-10-20T06:40:24.786Z,89.40
2017-10-20T06:42:53.847Z,89.34
2017-10-20T06:45:22.874Z,89.04
2017-10-20T06:47:51.924Z,89.07
2017-10-20T06:50:21.001Z,89.88
2017-10-20T06:52:50.047Z,89.54
2017-10-20T06:55:19.082Z,88.75
2017-10-20T06:57:48.483Z,88.58
2017-10-20T07:00:17.515Z,90.31
2017-10-20T07:02:46.567Z,91.73
2017-10-20T07:05:20.290Z,90.01
2017-10-20T07:07:49.401Z,90.78
2017-10-20T07:10:18.434Z,90.15
2017-10-20T07:12:51.142Z,90.10
2017-10-20T07:15:20.238Z,90.70
2017-10-20T07:17:49.362Z,88.03
2017-10-20T07:20:20.282Z,87.29
2017-10-20T07:22:49.460Z,87.24
2017-10-20T07:25:18.525Z,86.34
2017-10-20T07:27:47.570Z,86.15
2017-10-20T07:30:16.646Z,85.50
2017-10-20T07:32:45.696Z,84.84
2017-10-20T07:35:15.715Z,85.00
2017-10-20T07:37:44.771Z,84.59
2017-10-20T07:40:13.815Z,83.90
2017-10-20T07:42:42.871Z,83.29
2017-10-20T07:45:11.909Z,82.90
2017-10-20T07:47:40.955Z,82.54
2017-10-20T07:50:10.022Z,82.05
2017-10-20T07:52:39.051Z,81.83
2017-10-20T07:55:08.103Z,82.05
2017-10-20T07:57:37.194Z,78.99
2017-10-20T08:00:06.237Z,78.16
2017-10-20T08:02:35.282Z,76.93
2017-10-20T08:05:04.368Z,75.60
2017-10-20T08:07:33.420Z,72.59
2017-10-20T08:10:02.464Z,70.93
2017-10-20T08:12:31.514Z,70.27
2017-10-20T08:15:00.559Z,69.45
2017-10-20T08:17:29.611Z,66.66
2017-10-20T08:20:00.528Z,68.20
2017-10-20T08:22:29.571Z,63.11
2017-10-20T08:24:59.540Z,63.00
2017-10-20T08:27:28.594Z,60.74
2017-10-20T08:29:58.569Z,60.93
2017-10-20T08:32:27.622Z,59.18
2017-10-20T08:34:57.588Z,59.39
2017-10-20T08:37:26.644Z,58.04
2017-10-20T08:39:55.686Z,56.28
2017-10-20T08:42:24.749Z,56.29
2017-10-20T08:44:54.702Z,52.15
2017-10-20T08:47:23.756Z,50.57
2017-10-20T08:49:53.731Z,48.69
2017-10-20T08:52:22.765Z,49.53
2017-10-20T08:54:53.805Z,42.45
2017-10-20T08:57:23.613Z,44.65
2017-10-20T08:59:52.804Z,41.34
2017-10-20T09:02:21.816Z,40.93
2017-10-20T09:04:52.033Z,41.67
2017-10-20T09:07:21.394Z,37.18
2017-10-20T09:09:51.430Z,36.53
2017-10-20T09:12:20.482Z,37.65
2017-10-20T09:14:49.535Z,39.16
2017-10-20T09:17:19.252Z,38.98
2017-10-20T09:19:48.328Z,34.43
2017-10-20T09:22:18.357Z,33.20
2017-10-20T09:24:47.399Z,31.45
2017-10-20T09:27:17.112Z,34.36
2017-10-20T09:29:47.108Z,31.05
2017-10-20T09:32:16.358Z,34.22
2017-10-20T09:34:45.437Z,31.92
2017-10-20T09:37:14.483Z,31.49
2017-10-20T09:39:43.617Z,30.65
2017-10-20T09:42:12.663Z,33.04
2017-10-20T09:44:41.713Z,34.66
2017-10-20T09:47:10.759Z,31.76
2017-10-20T09:49:40.722Z,31.69
2017-10-20T09:52:09.767Z,34.93
2017-10-20T09:54:38.811Z,32.90
2017-10-20T09:57:07.862Z,34.13
2017-10-20T09:59:36.917Z,31.94
2017-10-20T10:02:05.969Z,29.96
2017-10-20T10:04:35.010Z,30.46
2017-10-20T10:07:04.070Z,30.07
2017-10-20T10:09:33.159Z,28.97
2017-10-20T10:12:02.214Z,26.33
2017-10-20T10:14:32.218Z,29.37
2017-10-20T10:17:01.271Z,28.82
2017-10-20T10:19:30.332Z,29.96
2017-10-20T10:21:59.370Z,30.01
2017-10-20T10:24:29.369Z,28.56
2017-10-20T10:27:02.565Z,29.08
2017-10-20T10:29:31.689Z,29.71
2017-10-20T10:32:02.696Z,31.51
2017-10-20T10:34:31.730Z,31.01
2017-10-20T10:37:00.777Z,29.55
2017-10-20T10:39:29.839Z,29.69
2017-10-20T10:41:58.879Z,29.91
2017-10-20T10:44:27.938Z,28.61
2017-10-20T10:46:56.996Z,27.90
2017-10-20T10:49:26.084Z,27.37
2017-10-20T10:51:55.250Z,27.00
2017-10-20T10:54:26.255Z,26.89
2017-10-20T10:56:55.406Z,26.43
2017-10-20T10:59:24.472Z,25.11
2017-10-20T11:01:53.503Z,24.14
2017-10-20T11:04:22.556Z,25.25
2017-10-20T11:07:09.493Z,26.47
2017-10-20T11:09:56.285Z,24.26
2017-10-20T11:12:43.860Z,23.60
2017-10-20T11:15:12.904Z,23.69
2017-10-20T11:17:41.996Z,25.22
2017-10-20T11:20:11.049Z,24.44
2017-10-20T11:22:40.091Z,21.93
2017-10-20T11:25:09.135Z,21.76
2017-10-20T11:27:39.179Z,20.27
2017-10-20T11:30:08.599Z,21.38
2017-10-20T11:32:37.658Z,18.46
2017-10-20T11:35:06.807Z,18.50
2017-10-20T11:37:35.884Z,21.81
2017-10-20T11:40:04.911Z,19.64
2017-10-20T11:42:33.967Z,19.54
2017-10-20T11:45:03.021Z,17.20
2017-10-20T11:47:32.994Z,18.89
2017-10-20T11:50:02.030Z,19.54
2017-10-20T11:52:31.144Z,20.79
2017-10-20T11:55:00.155Z,21.19
2017-10-20T11:57:29.194Z,19.71
2017-10-20T11:59:58.282Z,17.67
2017-10-20T12:02:27.332Z,18.86
2017-10-20T12:04:56.387Z,17.75
2017-10-20T12:07:25.423Z,19.50
2017-10-20T12:09:54.566Z,19.00
2017-10-20T12:12:23.614Z,18.92
2017-10-20T12:14:52.674Z,18.34
2017-10-20T12:17:21.707Z,18.76
2017-10-20T12:19:51.056Z,17.87
2017-10-20T12:22:20.834Z,17.98
2017-10-20T12:24:49.922Z,17.16
2017-10-20T12:27:20.435Z,17.21
2017-10-20T12:29:49.497Z,17.42
2017-10-20T12:32:26.126Z,16.79
2017-10-20T12:34:55.146Z,17.59
2017-10-20T12:37:32.199Z,15.81
2017-10-20T12:40:01.307Z,17.54
2017-10-20T12:42:30.363Z,17.01
2017-10-20T12:44:59.409Z,19.27
2017-10-20T12:47:28.470Z,18.58
2017-10-20T12:49:57.522Z,19.59
2017-10-20T12:52:27.479Z,18.64
2017-10-20T12:54:57.694Z,19.43
2017-10-20T12:57:26.743Z,19.07
2017-10-20T12:59:55.814Z,19.78
2017-10-20T13:02:24.863Z,19.60
2017-10-20T13:04:53.899Z,17.96
2017-10-20T13:07:22.947Z,17.90
2017-10-20T13:09:52.028Z,17.65
2017-10-20T13:12:21.091Z,16.97
2017-10-20T13:14:50.373Z,17.37
2017-10-20T13:17:19.399Z,18.71
2017-10-20T13:19:49.425Z,20.54
2017-10-20T13:22:18.475Z,21.67
2017-10-20T13:24:47.519Z,22.90
2017-10-20T13:27:16.584Z,20.86
2017-10-20T13:29:45.623Z,20.86
2017-10-20T13:32:14.675Z,21.83
2017-10-20T13:34:43.718Z,21.75
2017-10-20T13:37:12.824Z,23.57
2017-10-20T13:39:41.920Z,21.45
2017-10-20T13:42:11.099Z,21.93
2017-10-20T13:44:40.135Z,21.63
2017-10-20T13:47:09.175Z,22.75
2017-10-20T13:49:38.266Z,23.72
2017-10-20T13:52:07.312Z,24.55
2017-10-20T13:54:36.361Z,26.85
2017-10-20T13:57:05.428Z,24.06
2017-10-20T13:59:34.480Z,23.14
2017-10-20T14:02:03.519Z,24.46
2017-10-20T14:04:32.605Z,24.64
2017-10-20T14:07:01.674Z,25.50
2017-10-20T14:09:30.699Z,25.03
2017-10-20T14:11:59.732Z,22.94
2017-10-20T14:14:28.794Z,22.20
2017-10-20T14:16:57.838Z,21.19
2017-10-20T14:19:26.888Z,21.31
2017-10-20T14:21:55.951Z,21.31
2017-10-20T14:24:25.145Z,21.73
2017-10-20T14:26:54.225Z,23.09
2017-10-20T14:29:23.315Z,22.17
2017-10-20T14:31:52.466Z,24.07
2017-10-20T14:34:21.525Z,25.48
2017-10-20T14:36:50.594Z,25.40
2017-10-20T14:39:19.683Z,25.57
2017-10-20T14:41:49.866Z,26.12
2017-10-20T14:44:18.918Z,26.50
2017-10-20T14:46:50.020Z,26.20
2017-10-20T14:49:19.071Z,27.35
2017-10-20T14:51:50.056Z,28.47
2017-10-20T14:54:19.170Z,30.56
2017-10-20T14:56:48.807Z,31.04
2017-10-20T14:59:17.868Z,30.51
2017-10-20T15:01:48.288Z,31.92
2017-10-20T15:04:17.324Z,31.13
2017-10-20T15:06:46.582Z,31.54
2017-10-20T15:09:15.645Z,31.10
2017-10-20T15:11:44.696Z,32.31
2017-10-20T15:14:13.735Z,32.44
2017-10-20T15:16:42.793Z,33.37
2017-10-20T15:19:11.832Z,34.05
2017-10-20T15:21:41.904Z,35.96
2017-10-20T15:24:10.950Z,33.81
2017-10-20T15:26:40.416Z,36.14
2017-10-20T15:29:13.276Z,35.44
2017-10-20T15:31:42.313Z,35.34
2017-10-20T15:34:11.351Z,37.22
2017-10-20T15:36:40.421Z,39.45
2017-10-20T15:39:09.460Z,40.32
2017-10-20T15:41:38.593Z,38.20
2017-10-20T15:44:07.632Z,41.14
2017-10-20T15:46:36.711Z,40.01
2017-10-20T15:49:05.759Z,41.11
2017-10-20T15:51:34.812Z,44.88
2017-10-20T15:54:03.868Z,46.69
2017-10-20T15:56:32.923Z,44.21
2017-10-20T15:59:01.992Z,47.64
2017-10-20T16:01:31.060Z,45.00
2017-10-20T16:04:00.148Z,46.68
2017-10-20T16:06:29.180Z,49.01
2017-10-20T16:08:58.216Z,50.71
2017-10-20T16:11:27.260Z,50.12
2017-10-20T16:13:56.349Z,50.01
2017-10-20T16:16:25.387Z,49.58
2017-10-20T16:18:54.425Z,48.22
2017-10-20T16:21:23.489Z,49.81
2017-10-20T16:23:52.724Z,48.22
2017-10-20T16:26:21.777Z,47.38
2017-10-20T16:28:50.821Z,49.00
2017-10-20T16:31:20.336Z,46.20
2017-10-20T16:33:49.379Z,46.68
2017-10-20T16:36:19.731Z,47.59
2017-10-20T16:38:48.781Z,47.40
2017-10-20T16:41:18.776Z,47.83
2017-10-20T16:43:47.900Z,47.32
2017-10-20T16:46:17.988Z,46.15
2017-10-20T16:48:49.081Z,45.95
2017-10-20T16:51:18.760Z,46.46
2017-10-20T16:53:47.804Z,45.90
2017-10-20T16:56:17.927Z,45.49
2017-10-20T16:58:47.917Z,45.45
2017-10-20T17:01:18.049Z,45.64
2017-10-20T17:03:48.207Z,46.71
2017-10-20T17:06:18.219Z,46.44
2017-10-20T17:08:48.200Z,46.99
2017-10-20T17:11:18.477Z,47.06
2017-10-20T17:13:47.552Z,47.94
2017-10-20T17:16:17.232Z,47.68
2017-10-20T17:18:47.262Z,47.20
2017-10-20T17:21:16.527Z,48.91
2017-10-20T17:23:46.594Z,47.43
2017-10-20T17:26:15.877Z,48.26
2017-10-20T17:28:44.896Z,48.87
2017-10-20T17:31:13.947Z,48.17
2017-10-20T17:33:42.998Z,47.88
2017-10-20T17:36:12.064Z,48.98
2017-10-20T17:38:41.165Z,48.88
2017-10-20T17:41:10.248Z,49.06
2017-10-20T17:43:41.321Z,49.76
2017-10-20T17:46:19.567Z,49.60
2017-10-20T17:48:49.547Z,50.32
2017-10-20T17:51:19.502Z,49.91
2017-10-20T17:53:48.618Z,50.60
2017-10-20T17:56:17.810Z,50.70
2017-10-20T17:58:50.631Z,51.18
2017-10-20T18:01:19.725Z,50.74
2017-10-20T18:03:48.914Z,49.74
2017-10-20T18:06:19.894Z,50.17
2017-10-20T18:08:48.960Z,50.01
2017-10-20T18:11:18.152Z,50.91
2017-10-20T18:13:47.244Z,52.04
2017-10-20T18:16:16.302Z,52.14
2017-10-20T18:18:45.348Z,51.19
2017-10-20T18:21:14.425Z,52.90
2017-10-20T18:23:43.784Z,53.41
2017-10-20T18:26:12.894Z,53.98
2017-10-20T18:28:41.932Z,53.11
2017-10-20T18:31:11.166Z,54.29
2017-10-20T18:33:40.567Z,55.37
2017-10-20T18:36:10.119Z,56.43
2017-10-20T18:38:39.272Z,57.29
2017-10-20T18:41:08.328Z,57.86
2017-10-20T18:43:37.362Z,58.79
2017-10-20T18:46:06.650Z,57.77
2017-10-20T18:51:19.785Z,59.54
2017-10-20T18:53:49.186Z,60.90
2017-10-20T18:56:18.242Z,61.21
2017-10-20T18:58:47.322Z,60.38
2017-10-20T19:01:16.382Z,61.11
2017-10-20T19:03:45.429Z,61.15
2017-10-20T19:06:14.536Z,60.88
2017-10-20T19:08:43.589Z,61.06
2017-10-20T19:11:12.624Z,62.53
2017-10-20T19:13:42.667Z,62.84
2017-10-20T19:16:11.729Z,62.79
2017-10-20T19:18:40.782Z,62.40
2017-10-20T19:21:09.857Z,63.97
2017-10-20T19:23:38.949Z,63.88
2017-10-20T19:26:08.005Z,65.03
2017-10-20T19:28:37.081Z,64.48
2017-10-20T19:31:06.256Z,65.38
2017-10-20T19:33:35.321Z,65.63
2017-10-20T19:36:04.373Z,64.65
2017-10-20T19:38:33.557Z,66.53
2017-10-20T19:41:02.618Z,67.48
2017-10-20T19:43:31.693Z,67.38
2017-10-20T19:46:01.059Z,67.51
2017-10-20T19:48:30.116Z,67.69
2017-10-20T19:50:59.193Z,67.19
2017-10-20T19:53:28.281Z,68.30
2017-10-20T19:55:57.383Z,67.76
2017-10-20T19:58:27.615Z,68.19
2017-10-20T20:00:56.672Z,69.12
2017-10-20T20:03:25.702Z,68.22
2017-10-20T20:05:54.860Z,69.07
2017-10-20T20:08:23.903Z,67.89
2017-10-20T20:10:52.947Z,68.83
2017-10-20T20:13:22.105Z,67.92
2017-10-20T20:15:51.406Z,69.34
2017-10-20T20:18:20.422Z,68.65
2017-10-20T20:20:49.476Z,70.03
2017-10-20T20:23:18.519Z,70.08
2017-10-20T20:25:47.600Z,68.24
2017-10-20T20:28:16.643Z,70.10
2017-10-20T20:30:47.929Z,70.87
2017-10-20T20:36:16.404Z,70.12
2017-10-20T20:38:46.448Z,71.07
2017-10-20T20:41:15.503Z,72.03
2017-10-20T20:43:44.552Z,71.24
2017-10-20T20:46:13.627Z,72.69
2017-10-20T20:48:42.662Z,72.26
2017-10-20T20:51:11.699Z,74.93
2017-10-20T20:53:49.086Z,74.57
2017-10-20T20:56:18.152Z,73.15
2017-10-20T20:58:47.213Z,74.43
2017-10-20T21:01:16.253Z,71.89
2017-10-20T21:03:45.328Z,70.23
2017-10-20T21:06:14.400Z,71.11
2017-10-20T21:08:45.416Z,70.37
2017-10-20T21:11:14.461Z,70.13
2017-10-20T21:13:43.737Z,70.99
2017-10-20T21:16:12.763Z,71.60
2017-10-20T21:18:41.808Z,69.56
2017-10-20T21:21:12.812Z,71.85
2017-10-20T21:23:42.952Z,70.82
2017-10-20T21:26:12.016Z,70.21
2017-10-20T21:28:41.051Z,70.56
2017-10-20T21:31:10.123Z,69.71
2017-10-20T21:33:39.164Z,70.51
2017-10-20T21:36:08.527Z,71.31
2017-10-20T21:38:37.551Z,70.35
2017-10-20T21:41:06.592Z,69.44
2017-10-20T21:43:35.647Z,69.84
2017-10-20T21:46:04.695Z,69.38
2017-10-20T21:48:34.436Z,69.88
2017-10-20T21:51:03.864Z,69.24
2017-10-20T21:53:33.512Z,71.31
2017-10-20T21:56:09.384Z,71.91
2017-10-20T21:58:45.498Z,72.45
2017-10-20T22:01:14.731Z,71.60
2017-10-20T22:03:43.828Z,71.91
2017-10-20T22:06:14.303Z,71.33
2017-10-20T22:08:43.357Z,72.39
2017-10-20T22:11:12.403Z,71.50
2017-10-20T22:13:41.454Z,71.17
2017-10-20T22:16:10.514Z,71.26
2017-10-20T22:18:39.556Z,72.15
2017-10-20T22:21:08.623Z,72.22
2017-10-20T22:23:37.650Z,71.70
2017-10-20T22:26:06.699Z,71.75
2017-10-20T22:28:35.776Z,70.79
2017-10-20T22:31:04.800Z,71.26
2017-10-20T22:33:33.856Z,70.30
2017-10-20T22:36:02.914Z,70.96
2017-10-20T22:38:35.572Z,71.17
2017-10-20T22:41:05.491Z,71.36
2017-10-20T22:43:34.528Z,72.13
2017-10-20T22:46:04.530Z,72.54
2017-10-20T22:48:33.694Z,71.81
2017-10-20T22:51:02.739Z,72.80
2017-10-20T22:53:31.780Z,73.13
2017-10-20T22:56:04.388Z,73.81
2017-10-20T22:58:33.448Z,73.06
2017-10-20T23:01:02.480Z,73.19
2017-10-20T23:03:31.528Z,74.17
2017-10-20T23:06:01.488Z,75.02
2017-10-20T23:08:30.540Z,74.29
2017-10-20T23:10:59.607Z,73.45
2017-10-20T23:13:28.649Z,74.02
2017-10-20T23:15:57.679Z,74.29
2017-10-20T23:18:26.741Z,75.11
2017-10-20T23:20:56.763Z,75.14
2017-10-20T23:23:25.807Z,75.30
2017-10-20T23:25:54.844Z,73.36
2017-10-20T23:28:24.951Z,74.86
2017-10-20T23:30:54.951Z,75.40
2017-10-20T23:33:24.895Z,75.27
2017-10-20T23:35:53.944Z,73.89
2017-10-20T23:38:23.058Z,74.32
2017-10-20T23:40:53.177Z,73.94
2017-10-20T23:43:22.216Z,73.52
2017-10-20T23:45:51.323Z,74.42
2017-10-20T23:48:20.364Z,73.45
2017-10-20T23:50:49.423Z,73.26
2017-10-20T23:53:18.464Z,74.41
2017-10-20T23:55:47.507Z,74.02
2017-10-20T23:58:16.582Z,72.87
